Time;durP1;ratioP1;P1;durP2;ratioP2;P2;SDS_P1;SDS_P2;PMS_P1;PMS_P2;Temp;Humidity;BMP_temperature;BMP_pressure;BME280_temperature;BME280_humidity;BME280_pressure;Samples;Min_cycle;Max_cycle;Signal;HPM_P1;HPM_P2
2024/03/19 00:01:03;;;;;;;;;;;11.80;1.00;;;;;;5012469;28;19924;-87
2024/03/19 00:03:28;;;;;;;;;;;11.80;1.00;;;;;;5010341;28;20371;-87
2024/03/19 00:05:54;;;;;;;;;;;11.70;1.60;;;;;;5011057;28;19921;-87
2024/03/19 00:08:19;;;;;;;;;;;11.70;99.90;;;;;;5001943;28;20380;-87
2024/03/19 00:10:45;;;;;;;;;;;11.60;99.90;;;;;;5005858;28;20504;-87
2024/03/19 00:13:10;;;;;;;;;;;11.60;99.90;;;;;;5010231;28;20001;-87
2024/03/19 00:15:36;;;;;;;;;;;11.50;99.90;;;;;;5012024;28;19914;-86
2024/03/19 00:18:03;;;;;;;;;;;11.40;99.90;;;;;;5011523;28;19914;-87
2024/03/19 00:20:29;;;;;;;;;;;11.50;99.90;;;;;;5009769;28;19944;-87
2024/03/19 00:22:55;;;;;;;;;;;11.40;99.90;;;;;;5014713;28;19924;-87
2024/03/19 00:25:20;;;;;;;;;;;11.30;1.00;;;;;;5010875;28;19914;-86
2024/03/19 00:27:47;;;;;;;;;;;11.30;1.00;;;;;;5011868;28;20390;-87
2024/03/19 00:30:13;;;;;;;;;;;11.30;1.00;;;;;;5025082;28;19918;-87
2024/03/19 00:32:39;;;;;;;;;;;11.20;1.00;;;;;;5009244;28;19921;-87
2024/03/19 00:35:08;;;;;;;;;;;11.10;1.00;;;;;;5011191;28;19913;-86
2024/03/19 00:37:39;;;;;;;;;;;11.10;37.40;;;;;;5011653;28;19918;-88
2024/03/19 00:40:04;;;;;;;;;;;11.10;45.60;;;;;;5009524;28;19913;-87
2024/03/19 00:42:31;;;;;;;;;;;11.10;92.20;;;;;;5012157;28;20380;-87
2024/03/19 00:44:58;;;;;;;;;;;11.00;99.90;;;;;;5004482;28;20005;-87
2024/03/19 00:47:24;;;;;;;;;;;11.00;99.90;;;;;;5004491;28;19917;-87
2024/03/19 00:49:49;;;;;;;;;;;11.00;99.90;;;;;;5010623;28;19921;-87
2024/03/19 00:52:15;;;;;;;;;;;11.00;99.90;;;;;;5011903;28;19918;-87
2024/03/19 00:54:40;;;;;;;;;;;10.90;99.90;;;;;;5010188;28;20414;-86
2024/03/19 00:57:06;;;;;;;;;;;10.90;99.90;;;;;;5011674;28;19927;-87
2024/03/19 00:59:32;;;;;;;;;;;10.90;99.90;;;;;;5008574;28;19957;-87
2024/03/19 01:01:58;;;;;;;;;;;10.90;99.90;;;;;;5010850;28;19956;-87
2024/03/19 01:04:23;;;;;;;;;;;10.90;99.90;;;;;;5008808;28;20359;-87
2024/03/19 01:06:49;;;;;;;;;;;10.90;99.90;;;;;;5012422;28;19921;-87
2024/03/19 01:09:14;;;;;;;;;;;10.80;99.90;;;;;;5011086;28;20430;-87
2024/03/19 01:11:43;;;;;;;;;;;10.80;99.90;;;;;;5012330;28;19967;-87
2024/03/19 01:14:08;;;;;;;;;;;10.80;99.90;;;;;;5010796;28;19963;-86
2024/03/19 01:16:34;;;;;;;;;;;10.80;99.90;;;;;;5010464;28;20367;-87
2024/03/19 01:18:59;;;;;;;;;;;10.70;99.90;;;;;;5009721;28;19932;-86
2024/03/19 01:21:25;;;;;;;;;;;10.70;99.90;;;;;;5009761;28;19992;-87
2024/03/19 01:23:51;;;;;;;;;;;10.70;99.90;;;;;;5010300;28;19914;-86
2024/03/19 01:26:16;;;;;;;;;;;10.70;99.90;;;;;;5014141;28;20454;-87
2024/03/19 01:28:42;;;;;;;;;;;10.70;99.90;;;;;;5015445;28;20281;-86
2024/03/19 01:31:07;;;;;;;;;;;10.60;99.90;;;;;;5012872;28;19914;-87
2024/03/19 01:33:33;;;;;;;;;;;10.60;99.90;;;;;;5015621;28;19921;-85
2024/03/19 01:35:58;;;;;;;;;;;10.60;99.90;;;;;;5015290;28;19923;-87
2024/03/19 01:38:25;;;;;;;;;;;10.50;99.90;;;;;;5013189;28;20346;-87
2024/03/19 01:40:51;;;;;;;;;;;10.50;1.00;;;;;;5015004;28;19913;-87
2024/03/19 01:43:20;;;;;;;;;;;10.50;1.00;;;;;;5014499;28;20032;-86
2024/03/19 01:46:05;;;;;;;;;;;10.50;1.00;;;;;;5009093;28;20004;-87
2024/03/19 01:48:31;;;;;;;;;;;10.50;1.00;;;;;;5013548;28;20028;-87
2024/03/19 01:50:56;;;;;;;;;;;10.50;1.00;;;;;;5013263;28;19929;-88
2024/03/19 01:53:22;;;;;;;;;;;10.50;1.00;;;;;;5012538;28;20020;-87
2024/03/19 01:55:47;;;;;;;;;;;10.50;1.00;;;;;;5020725;28;19920;-87
2024/03/19 01:58:13;;;;;;;;;;;10.40;1.00;;;;;;5012093;28;19940;-86
2024/03/19 02:00:38;;;;;;;;;;;10.40;1.00;;;;;;5013782;28;20055;-86
2024/03/19 02:03:05;;;;;;;;;;;10.40;1.00;;;;;;5012551;28;19921;-87
2024/03/19 02:05:31;;;;;;;;;;;10.40;1.00;;;;;;5013309;28;19921;-86
2024/03/19 02:07:56;;;;;;;;;;;10.40;1.00;;;;;;5014139;28;19914;-86
2024/03/19 02:10:21;;;;;;;;;;;10.40;1.00;;;;;;5015983;28;19923;-85
2024/03/19 02:12:47;;;;;;;;;;;10.40;1.00;;;;;;5010992;28;19917;-87
2024/03/19 02:15:12;;;;;;;;;;;10.50;1.00;;;;;;5014411;28;19917;-87
2024/03/19 02:17:38;;;;;;;;;;;10.50;1.00;;;;;;5010967;28;19909;-87
2024/03/19 02:20:12;;;;;;;;;;;10.50;1.00;;;;;;5015415;28;19913;-87
2024/03/19 02:22:47;;;;;;;;;;;10.50;1.00;;;;;;5010837;28;19909;-87
2024/03/19 02:25:16;;;;;;;;;;;10.50;1.00;;;;;;5013348;28;19918;-87
2024/03/19 02:27:43;;;;;;;;;;;10.60;1.00;;;;;;5012553;28;19976;-85
2024/03/19 02:30:09;;;;;;;;;;;10.60;1.00;;;;;;5011732;28;19913;-87
2024/03/19 02:32:34;;;;;;;;;;;10.60;1.00;;;;;;5007432;28;19918;-87
2024/03/19 02:35:00;;;;;;;;;;;10.60;1.00;;;;;;5011704;28;19916;-87
2024/03/19 02:37:26;;;;;;;;;;;10.70;1.00;;;;;;5005700;28;19913;-86
2024/03/19 02:39:52;;;;;;;;;;;10.60;1.00;;;;;;5008351;28;20291;-87
2024/03/19 02:42:19;;;;;;;;;;;10.70;1.00;;;;;;5012797;28;20277;-87
2024/03/19 02:44:45;;;;;;;;;;;10.60;1.00;;;;;;5014672;28;19913;-87
2024/03/19 02:47:10;;;;;;;;;;;10.70;1.00;;;;;;5014198;28;19909;-87
2024/03/19 02:49:36;;;;;;;;;;;10.60;1.00;;;;;;5019829;28;20312;-87
2024/03/19 02:52:01;;;;;;;;;;;10.70;1.00;;;;;;5015186;28;20455;-88
2024/03/19 02:54:27;;;;;;;;;;;10.70;1.00;;;;;;5028390;28;19957;-87
2024/03/19 02:56:52;;;;;;;;;;;10.60;1.00;;;;;;5008499;28;19922;-87
2024/03/19 02:59:18;;;;;;;;;;;10.60;1.00;;;;;;5012483;28;20008;-87
2024/03/19 03:01:43;;;;;;;;;;;10.70;1.00;;;;;;5013130;28;19913;-87
2024/03/19 03:04:09;;;;;;;;;;;10.70;1.00;;;;;;5014025;28;19913;-87
2024/03/19 03:06:34;;;;;;;;;;;10.60;1.00;;;;;;5007198;28;19913;-87
2024/03/19 03:09:00;;;;;;;;;;;10.60;1.00;;;;;;5008858;28;19909;-87
2024/03/19 03:11:25;;;;;;;;;;;10.60;1.00;;;;;;5011060;28;19917;-87
2024/03/19 03:13:51;;;;;;;;;;;10.60;1.00;;;;;;5005341;28;19917;-87
2024/03/19 03:16:16;;;;;;;;;;;10.60;1.00;;;;;;5011886;28;19913;-87
2024/03/19 03:18:42;;;;;;;;;;;10.60;1.00;;;;;;5009595;28;19913;-87
2024/03/19 03:21:07;;;;;;;;;;;10.60;1.00;;;;;;5014052;28;19913;-87
2024/03/19 03:23:34;;;;;;;;;;;10.60;1.00;;;;;;5009351;28;20442;-87
2024/03/19 03:26:00;;;;;;;;;;;10.60;1.00;;;;;;5013459;28;19913;-86
2024/03/19 03:28:25;;;;;;;;;;;10.60;1.00;;;;;;5011530;28;19928;-86
2024/03/19 03:30:51;;;;;;;;;;;10.50;1.00;;;;;;5006244;28;19922;-87
2024/03/19 03:33:16;;;;;;;;;;;10.50;1.00;;;;;;5012455;28;19918;-87
2024/03/19 03:35:43;;;;;;;;;;;10.50;1.00;;;;;;5012865;28;19914;-87
2024/03/19 03:38:09;;;;;;;;;;;10.60;1.00;;;;;;5010541;28;19920;-87
2024/03/19 03:40:35;;;;;;;;;;;10.50;1.00;;;;;;5013301;28;19921;-87
2024/03/19 03:43:00;;;;;;;;;;;10.60;1.00;;;;;;5012423;28;19913;-88
2024/03/19 03:45:26;;;;;;;;;;;10.50;1.00;;;;;;5011858;28;20415;-87
2024/03/19 03:47:51;;;;;;;;;;;10.50;1.00;;;;;;5011936;28;19913;-86
2024/03/19 03:50:17;;;;;;;;;;;10.50;1.00;;;;;;5008731;28;19920;-87
2024/03/19 03:52:42;;;;;;;;;;;10.50;1.00;;;;;;5015478;28;19922;-87
2024/03/19 03:55:09;;;;;;;;;;;10.40;1.00;;;;;;5011124;28;19952;-87
2024/03/19 03:57:35;;;;;;;;;;;10.40;1.00;;;;;;5011164;28;19913;-87
2024/03/19 04:00:04;;;;;;;;;;;10.30;1.00;;;;;;5010555;28;19920;-87
2024/03/19 04:02:31;;;;;;;;;;;10.40;1.00;;;;;;5011616;28;20016;-87
2024/03/19 04:04:56;;;;;;;;;;;10.30;1.00;;;;;;5013278;28;20039;-87
2024/03/19 04:07:22;;;;;;;;;;;10.30;1.00;;;;;;5012875;28;19913;-86
2024/03/19 04:09:47;;;;;;;;;;;10.30;1.00;;;;;;5013225;28;19952;-87
2024/03/19 04:12:13;;;;;;;;;;;10.20;1.00;;;;;;5008688;28;19922;-87
2024/03/19 04:14:38;;;;;;;;;;;10.20;1.00;;;;;;5013216;28;19967;-87
2024/03/19 04:17:04;;;;;;;;;;;10.20;1.00;;;;;;5012267;28;19913;-87
2024/03/19 04:19:30;;;;;;;;;;;10.10;1.00;;;;;;5012331;28;19921;-88
2024/03/19 04:21:55;;;;;;;;;;;10.10;1.00;;;;;;5016230;28;19917;-88
2024/03/19 04:24:21;;;;;;;;;;;10.10;1.00;;;;;;5011555;28;19920;-87
2024/03/19 04:26:46;;;;;;;;;;;10.10;1.00;;;;;;5012921;28;19952;-88
2024/03/19 04:29:16;;;;;;;;;;;10.10;1.00;;;;;;5012213;28;20339;-87
2024/03/19 04:31:41;;;;;;;;;;;10.10;1.00;;;;;;5012044;28;19936;-88
2024/03/19 04:34:09;;;;;;;;;;;10.10;1.00;;;;;;5012876;28;19918;-88
2024/03/19 04:36:34;;;;;;;;;;;10.10;1.00;;;;;;5012961;28;19936;-88
2024/03/19 04:39:02;;;;;;;;;;;10.20;1.00;;;;;;5010193;28;19913;-88
2024/03/19 04:41:28;;;;;;;;;;;10.20;1.00;;;;;;5012107;28;20285;-88
2024/03/19 04:43:53;;;;;;;;;;;10.20;1.00;;;;;;5018113;28;19920;-87
2024/03/19 04:46:19;;;;;;;;;;;10.30;1.00;;;;;;5012297;28;19921;-88
2024/03/19 04:48:44;;;;;;;;;;;10.30;1.00;;;;;;5011990;28;19914;-88
2024/03/19 04:51:10;;;;;;;;;;;10.40;1.00;;;;;;5011661;28;20391;-88
2024/03/19 04:53:35;;;;;;;;;;;10.40;1.00;;;;;;5008655;28;19941;-88
2024/03/19 04:56:01;;;;;;;;;;;10.40;1.00;;;;;;5011373;28;20395;-88
2024/03/19 04:58:26;;;;;;;;;;;10.40;1.00;;;;;;5011571;28;19921;-87
2024/03/19 05:00:52;;;;;;;;;;;10.40;1.00;;;;;;5013686;28;19917;-87
2024/03/19 05:03:17;;;;;;;;;;;10.40;1.00;;;;;;5013673;28;20395;-87
2024/03/19 05:05:43;;;;;;;;;;;10.40;1.00;;;;;;5012840;28;19917;-87
2024/03/19 05:08:08;;;;;;;;;;;10.30;1.00;;;;;;5013145;28;19968;-87
2024/03/19 05:10:34;;;;;;;;;;;10.30;1.00;;;;;;5016693;28;19963;-87
2024/03/19 05:12:59;;;;;;;;;;;10.30;1.00;;;;;;5017004;28;20522;-88
2024/03/19 05:15:25;;;;;;;;;;;10.30;1.00;;;;;;5015410;28;19921;-88
2024/03/19 05:17:51;;;;;;;;;;;10.40;1.00;;;;;;5015007;28;19914;-87
2024/03/19 05:20:17;;;;;;;;;;;10.30;1.00;;;;;;5008678;28;19960;-86
2024/03/19 05:22:42;;;;;;;;;;;10.30;1.00;;;;;;5017291;28;19920;-88
2024/03/19 05:25:08;;;;;;;;;;;10.20;1.00;;;;;;5015609;28;19913;-87
2024/03/19 05:27:33;;;;;;;;;;;10.30;1.00;;;;;;5014512;28;19917;-87
2024/03/19 05:29:59;;;;;;;;;;;10.30;1.00;;;;;;5014926;28;19914;-88
2024/03/19 05:32:24;;;;;;;;;;;10.30;1.00;;;;;;5014653;28;19917;-88
2024/03/19 05:34:50;;;;;;;;;;;10.30;1.00;;;;;;5015778;28;19914;-87
2024/03/19 05:37:17;;;;;;;;;;;10.40;1.00;;;;;;5014019;28;19913;-87
2024/03/19 05:39:42;;;;;;;;;;;10.30;1.00;;;;;;5027206;28;19929;-87
2024/03/19 05:42:08;;;;;;;;;;;10.40;1.00;;;;;;5014479;28;20016;-88
2024/03/19 05:44:33;;;;;;;;;;;10.40;1.00;;;;;;5009415;28;19917;-87
2024/03/19 05:46:58;;;;;;;;;;;10.50;1.00;;;;;;5010147;28;19984;-87
2024/03/19 05:49:24;;;;;;;;;;;10.50;1.00;;;;;;5008565;28;19914;-87
2024/03/19 05:51:49;;;;;;;;;;;10.50;1.00;;;;;;5018062;28;19915;-88
2024/03/19 05:54:15;;;;;;;;;;;10.50;1.00;;;;;;5015657;28;19921;-89
2024/03/19 05:56:41;;;;;;;;;;;10.50;1.00;;;;;;5012729;28;19913;-87
2024/03/19 05:59:06;;;;;;;;;;;10.60;1.00;;;;;;5012680;28;19996;-88
2024/03/19 06:01:32;;;;;;;;;;;10.60;1.00;;;;;;5013609;28;20000;-87
2024/03/19 06:04:00;;;;;;;;;;;10.60;1.00;;;;;;5015656;28;19964;-88
2024/03/19 06:06:25;;;;;;;;;;;10.60;1.00;;;;;;5015706;28;19913;-87
2024/03/19 06:08:51;;;;;;;;;;;10.70;1.00;;;;;;5013605;28;20339;-88
2024/03/19 06:11:16;;;;;;;;;;;10.70;1.00;;;;;;5008505;28;19917;-88
2024/03/19 06:13:42;;;;;;;;;;;10.80;1.00;;;;;;5012884;28;20113;-87
2024/03/19 06:16:07;;;;;;;;;;;10.80;1.00;;;;;;5012406;28;19949;-88
2024/03/19 06:18:33;;;;;;;;;;;10.80;1.00;;;;;;5013168;28;20379;-88
2024/03/19 06:20:58;;;;;;;;;;;10.80;1.00;;;;;;5013030;28;19920;-88
2024/03/19 06:23:27;;;;;;;;;;;10.90;1.00;;;;;;5013828;28;20291;-88
2024/03/19 06:25:53;;;;;;;;;;;10.90;1.00;;;;;;5012263;28;19918;-88
2024/03/19 06:28:18;;;;;;;;;;;10.80;1.00;;;;;;5010513;28;20044;-88
2024/03/19 06:30:44;;;;;;;;;;;10.90;1.00;;;;;;5014524;28;20379;-88
2024/03/19 06:33:09;;;;;;;;;;;10.90;1.00;;;;;;5011936;28;19917;-88
2024/03/19 06:35:35;;;;;;;;;;;10.90;1.00;;;;;;5014945;28;19917;-89
2024/03/19 06:38:02;;;;;;;;;;;11.00;1.00;;;;;;5010322;28;20332;-87
2024/03/19 06:40:28;;;;;;;;;;;11.00;1.00;;;;;;5011319;28;20012;-89
2024/03/19 06:42:54;;;;;;;;;;;11.10;1.00;;;;;;5007852;28;19993;-88
2024/03/19 06:45:20;;;;;;;;;;;11.10;1.00;;;;;;5014248;28;19953;-89
2024/03/19 06:47:45;;;;;;;;;;;11.10;1.00;;;;;;5012485;28;19920;-88
2024/03/19 06:50:13;;;;;;;;;;;11.10;1.00;;;;;;5010520;28;19913;-88
2024/03/19 06:52:42;;;;;;;;;;;11.10;1.00;;;;;;5014059;28;19924;-88
2024/03/19 06:55:08;;;;;;;;;;;11.20;1.00;;;;;;5010986;28;20004;-89
2024/03/19 06:57:33;;;;;;;;;;;11.20;1.00;;;;;;5010932;28;20004;-87
2024/03/19 06:59:59;;;;;;;;;;;11.30;1.00;;;;;;5014258;28;19940;-87
2024/03/19 07:02:25;;;;;;;;;;;11.30;1.00;;;;;;5018386;28;19921;-87
2024/03/19 07:04:51;;;;;;;;;;;11.40;1.00;;;;;;5013875;28;19913;-87
2024/03/19 07:07:17;;;;;;;;;;;11.50;1.00;;;;;;5013387;28;19969;-87
2024/03/19 07:09:45;;;;;;;;;;;11.50;1.00;;;;;;5016413;28;20430;-86
2024/03/19 07:12:10;;;;;;;;;;;11.60;1.00;;;;;;5010272;28;20397;-87
2024/03/19 07:14:39;;;;;;;;;;;11.70;1.00;;;;;;5013091;28;20099;-88
2024/03/19 07:17:04;;;;;;;;;;;11.70;1.00;;;;;;5011641;28;19913;-87
2024/03/19 07:19:30;;;;;;;;;;;11.80;1.00;;;;;;5017556;28;19914;-87
2024/03/19 07:21:56;;;;;;;;;;;11.80;1.00;;;;;;5009007;28;19914;-87
2024/03/19 07:24:21;;;;;;;;;;;11.80;99.90;;;;;;5009169;28;19913;-87
2024/03/19 07:26:47;;;;;;;;;;;11.90;99.90;;;;;;5008784;28;19914;-87
2024/03/19 07:29:12;;;;;;;;;;;11.90;99.90;;;;;;5006389;28;19956;-88
2024/03/19 07:31:40;;;;;;;;;;;12.10;99.90;;;;;;5010314;28;19968;-87
2024/03/19 07:34:06;;;;;;;;;;;12.00;99.90;;;;;;5011255;28;19918;-87
2024/03/19 07:36:32;;;;;;;;;;;12.10;99.90;;;;;;5010089;28;20335;-87
2024/03/19 07:38:57;;;;;;;;;;;12.10;99.90;;;;;;5002313;28;19928;-87
2024/03/19 07:41:23;;;;;;;;;;;12.10;99.90;;;;;;5014784;28;20394;-88
2024/03/19 07:43:48;;;;;;;;;;;12.10;99.90;;;;;;5007090;28;19914;-88
2024/03/19 07:46:16;;;;;;;;;;;12.20;99.90;;;;;;5006546;28;19914;-86
2024/03/19 07:48:42;;;;;;;;;;;12.20;99.90;;;;;;5016472;28;20299;-86
2024/03/19 07:51:07;;;;;;;;;;;12.30;99.90;;;;;;5005938;28;19913;-87
2024/03/19 07:53:33;;;;;;;;;;;12.40;99.90;;;;;;5011276;28;20273;-88
2024/03/19 07:55:58;;;;;;;;;;;12.40;99.90;;;;;;5004416;28;19968;-87
2024/03/19 07:58:24;;;;;;;;;;;12.40;99.90;;;;;;5005141;28;20335;-88
2024/03/19 08:00:50;;;;;;;;;;;12.30;99.90;;;;;;5012713;28;20262;-88
2024/03/19 08:03:17;;;;;;;;;;;12.30;99.90;;;;;;5011000;28;19913;-86
2024/03/19 08:05:42;;;;;;;;;;;12.30;99.90;;;;;;5010424;28;20404;-87
2024/03/19 08:08:08;;;;;;;;;;;12.30;99.90;;;;;;5007955;28;19924;-88
2024/03/19 08:10:33;;;;;;;;;;;12.20;99.90;;;;;;5008105;28;20520;-87
2024/03/19 08:12:59;;;;;;;;;;;12.20;99.90;;;;;;5011186;28;19921;-87
2024/03/19 08:15:25;;;;;;;;;;;12.20;99.90;;;;;;5007691;28;19925;-87
2024/03/19 08:17:50;;;;;;;;;;;12.30;99.90;;;;;;5012739;28;19914;-88
2024/03/19 08:20:17;;;;;;;;;;;12.30;99.90;;;;;;5007098;28;20437;-86
2024/03/19 08:22:43;;;;;;;;;;;12.40;99.90;;;;;;5013671;28;20003;-88
2024/03/19 08:25:10;;;;;;;;;;;12.60;99.90;;;;;;5000345;28;19914;-87
2024/03/19 08:27:36;;;;;;;;;;;12.80;25.20;;;;;;5005794;28;19924;-87
2024/03/19 08:30:02;;;;;;;;;;;12.90;1.00;;;;;;5017367;28;19922;-87
2024/03/19 08:32:28;;;;;;;;;;;13.10;99.90;;;;;;5005395;28;19913;-88
2024/03/19 08:34:53;;;;;;;;;;;13.50;99.90;;;;;;5011075;28;19921;-87
2024/03/19 08:37:18;;;;;;;;;;;13.90;1.00;;;;;;5006943;28;19917;-87
2024/03/19 08:39:44;;;;;;;;;;;14.40;1.00;;;;;;5001565;28;19914;-88
2024/03/19 08:42:09;;;;;;;;;;;14.80;1.00;;;;;;5002684;28;19914;-87
2024/03/19 08:44:37;;;;;;;;;;;15.30;99.90;;;;;;5013120;28;20205;-88
2024/03/19 08:47:02;;;;;;;;;;;15.80;99.90;;;;;;5010691;28;21115;-88
2024/03/19 08:49:28;;;;;;;;;;;16.30;99.90;;;;;;5011529;28;19949;-88
2024/03/19 08:51:54;;;;;;;;;;;16.90;1.00;;;;;;5019841;28;19991;-88
2024/03/19 08:54:20;;;;;;;;;;;17.40;1.00;;;;;;5012984;28;19914;-88
2024/03/19 08:56:46;;;;;;;;;;;17.90;1.00;;;;;;5012519;28;20040;-87
2024/03/19 08:59:13;;;;;;;;;;;18.30;1.00;;;;;;5010822;28;19968;-86
2024/03/19 09:01:38;;;;;;;;;;;18.40;1.00;;;;;;4997969;28;20494;-89
2024/03/19 09:04:06;;;;;;;;;;;18.40;1.00;;;;;;5007386;28;19956;-87
2024/03/19 09:06:31;;;;;;;;;;;18.40;1.00;;;;;;4999840;28;20404;-87
2024/03/19 09:08:57;;;;;;;;;;;18.60;1.00;;;;;;5009875;28;19941;-88
2024/03/19 09:11:23;;;;;;;;;;;18.70;99.90;;;;;;5000543;28;19925;-87
2024/03/19 09:13:49;;;;;;;;;;;18.80;99.90;;;;;;5008801;28;20368;-87
2024/03/19 09:16:14;;;;;;;;;;;18.70;99.90;;;;;;5009496;28;20001;-87
2024/03/19 09:18:42;;;;;;;;;;;18.60;99.90;;;;;;5004988;28;19913;-87
2024/03/19 09:21:10;;;;;;;;;;;18.60;99.90;;;;;;5009393;28;20519;-87
2024/03/19 09:23:36;;;;;;;;;;;18.70;99.90;;;;;;5006268;28;19941;-85
2024/03/19 09:26:02;;;;;;;;;;;18.60;99.90;;;;;;5009067;28;19972;-87
2024/03/19 09:28:31;;;;;;;;;;;18.40;99.90;;;;;;5007315;28;19914;-85
2024/03/19 09:30:57;;;;;;;;;;;18.30;99.90;;;;;;5007690;28;19920;-86
2024/03/19 09:33:23;;;;;;;;;;;18.20;99.90;;;;;;5003100;28;19921;-86
2024/03/19 09:35:49;;;;;;;;;;;18.10;99.90;;;;;;5005686;28;20059;-86
2024/03/19 09:38:15;;;;;;;;;;;18.10;99.90;;;;;;5010429;28;19999;-86
2024/03/19 09:40:46;;;;;;;;;;;18.00;99.90;;;;;;5010078;28;19920;-88
2024/03/19 09:43:20;;;;;;;;;;;17.70;99.90;;;;;;5010931;28;19914;-87
2024/03/19 09:45:46;;;;;;;;;;;17.50;99.90;;;;;;5010307;28;19913;-87
2024/03/19 09:48:12;;;;;;;;;;;17.50;99.90;;;;;;5013860;28;19914;-86
2024/03/19 09:50:38;;;;;;;;;;;17.50;99.90;;;;;;5011814;28;19913;-88
2024/03/19 09:53:03;;;;;;;;;;;17.70;99.90;;;;;;5012998;28;19924;-88
2024/03/19 09:55:29;;;;;;;;;;;17.90;99.90;;;;;;5009094;28;19917;-88
2024/03/19 09:57:55;;;;;;;;;;;18.20;99.90;;;;;;5008685;28;19937;-88
2024/03/19 10:00:27;;;;;;;;;;;18.20;99.90;;;;;;5013380;28;19913;-87
2024/03/19 10:02:53;;;;;;;;;;;18.20;99.90;;;;;;5013621;28;19921;-87
2024/03/19 10:05:19;;;;;;;;;;;18.20;99.90;;;;;;5017201;28;19918;-87
2024/03/19 10:07:45;;;;;;;;;;;18.30;99.90;;;;;;5013028;28;19939;-87
2024/03/19 10:10:14;;;;;;;;;;;18.40;99.90;;;;;;5014199;28;19921;-86
2024/03/19 10:12:41;;;;;;;;;;;18.80;99.90;;;;;;5013387;28;20371;-86
2024/03/19 10:15:06;;;;;;;;;;;19.00;99.90;;;;;;5014559;28;19936;-86
2024/03/19 10:17:32;;;;;;;;;;;19.20;99.90;;;;;;5013967;28;20434;-85
2024/03/19 10:19:57;;;;;;;;;;;19.60;99.90;;;;;;5015459;28;19921;-84
2024/03/19 10:22:25;;;;;;;;;;;20.40;99.90;;;;;;5016309;28;20462;-85
2024/03/19 10:24:51;;;;;;;;;;;21.30;99.90;;;;;;5020337;28;19913;-85
2024/03/19 10:27:17;;;;;;;;;;;22.10;99.90;;;;;;5030325;28;19922;-85
2024/03/19 10:29:46;;;;;;;;;;;22.90;99.90;;;;;;5012975;28;19918;-85
2024/03/19 10:32:11;;;;;;;;;;;23.10;99.90;;;;;;5012834;28;19999;-85
2024/03/19 10:34:37;;;;;;;;;;;23.20;99.90;;;;;;5014759;28;19918;-86
2024/03/19 10:37:04;;;;;;;;;;;23.30;99.90;;;;;;5016067;28;19920;-84
2024/03/19 10:39:31;;;;;;;;;;;23.60;99.90;;;;;;5017574;28;19921;-84
2024/03/19 10:41:57;;;;;;;;;;;24.10;99.90;;;;;;5013584;28;19913;-85
2024/03/19 10:44:23;;;;;;;;;;;24.70;99.90;;;;;;5013367;28;19933;-85
2024/03/19 10:46:49;;;;;;;;;;;25.10;99.90;;;;;;5013113;28;19914;-85
2024/03/19 10:49:16;;;;;;;;;;;25.40;99.90;;;;;;5008963;28;20276;-84
2024/03/19 10:52:01;;;;;;;;;;;26.10;99.90;;;;;;5010819;28;19914;-84
2024/03/19 10:54:31;;;;;;;;;;;26.50;99.90;;;;;;5012755;28;20375;-85
2024/03/19 10:56:57;;;;;;;;;;;26.60;99.90;;;;;;5015144;28;19973;-87
2024/03/19 10:59:23;;;;;;;;;;;26.70;99.90;;;;;;5012640;28;19913;-85
2024/03/19 11:01:50;;;;;;;;;;;27.50;99.90;;;;;;5012936;28;19913;-86
2024/03/19 11:04:16;;;;;;;;;;;28.00;99.90;;;;;;5015424;28;20331;-83
2024/03/19 11:06:41;;;;;;;;;;;27.90;99.90;;;;;;5011896;28;19920;-86
2024/03/19 11:09:20;;;;;;;;;;;27.30;99.90;;;;;;5014749;28;20352;-86
2024/03/19 11:11:49;;;;;;;;;;;27.00;99.90;;;;;;5008999;28;19917;-86
2024/03/19 11:14:19;;;;;;;;;;;26.60;99.90;;;;;;5009322;28;19959;-86
2024/03/19 11:16:47;;;;;;;;;;;26.70;99.90;;;;;;5014917;28;20338;-83
2024/03/19 11:19:22;;;;;;;;;;;27.30;99.90;;;;;;5011631;28;19918;-85
2024/03/19 11:21:51;;;;;;;;;;;27.60;99.90;;;;;;5014634;28;19941;-85
2024/03/19 11:24:35;;;;;;;;;;;27.80;99.90;;;;;;5017009;28;19945;-85
2024/03/19 11:27:02;;;;;;;;;;;27.30;99.90;;;;;;5014776;28;19913;-84
2024/03/19 11:29:31;;;;;;;;;;;26.70;99.90;;;;;;5007585;28;19914;-86
2024/03/19 11:31:57;;;;;;;;;;;26.50;99.90;;;;;;5008337;28;19916;-86
2024/03/19 11:34:26;;;;;;;;;;;26.50;99.90;;;;;;5020602;28;19917;-87
2024/03/19 11:36:52;;;;;;;;;;;27.10;99.90;;;;;;5019877;28;19956;-85
2024/03/19 11:39:18;;;;;;;;;;;27.60;99.90;;;;;;5014269;28;19913;-84
2024/03/19 11:41:44;;;;;;;;;;;27.40;99.90;;;;;;5014864;28;19914;-85
2024/03/19 11:44:13;;;;;;;;;;;27.50;99.90;;;;;;5012723;28;19913;-84
2024/03/19 11:46:38;;;;;;;;;;;27.90;99.90;;;;;;5014855;28;19920;-84
2024/03/19 11:49:04;;;;;;;;;;;28.00;99.90;;;;;;5013117;28;19913;-85
2024/03/19 11:51:29;;;;;;;;;;;27.80;99.90;;;;;;5014819;28;20372;-84
2024/03/19 11:53:58;;;;;;;;;;;27.50;99.90;;;;;;5013849;28;19918;-84
2024/03/19 11:56:24;;;;;;;;;;;27.50;99.90;;;;;;5013923;28;20342;-84
2024/03/19 11:58:49;;;;;;;;;;;27.70;99.90;;;;;;5014863;28;19929;-85
2024/03/19 12:01:15;;;;;;;;;;;27.80;99.90;;;;;;5015995;28;20391;-84
2024/03/19 12:03:41;;;;;;;;;;;27.70;99.90;;;;;;5011392;28;19913;-85
2024/03/19 12:06:06;;;;;;;;;;;28.00;99.90;;;;;;5015171;28;19936;-86
2024/03/19 12:08:36;;;;;;;;;;;28.40;99.90;;;;;;5013938;28;19952;-86
2024/03/19 12:11:05;;;;;;;;;;;28.70;99.90;;;;;;5012963;28;19917;-88
2024/03/19 12:13:34;;;;;;;;;;;28.40;99.90;;;;;;5028139;28;19917;-86
2024/03/19 12:16:00;;;;;;;;;;;29.10;99.90;;;;;;5015284;28;19985;-86
2024/03/19 12:18:26;;;;;;;;;;;29.70;99.90;;;;;;5015937;28;19960;-85
2024/03/19 12:20:54;;;;;;;;;;;30.00;99.90;;;;;;5014370;28;20437;-85
2024/03/19 12:23:20;;;;;;;;;;;30.20;99.90;;;;;;5014323;28;19960;-86
2024/03/19 12:25:46;;;;;;;;;;;30.30;99.90;;;;;;5010885;28;20431;-84
2024/03/19 12:28:15;;;;;;;;;;;30.50;99.90;;;;;;5013521;28;20020;-84
2024/03/19 12:30:41;;;;;;;;;;;30.50;99.90;;;;;;5005491;28;19917;-88
2024/03/19 12:33:13;;;;;;;;;;;30.40;99.90;;;;;;5002366;28;20027;-85
2024/03/19 12:35:39;;;;;;;;;;;30.50;99.90;;;;;;4998876;28;19917;-86
2024/03/19 12:38:11;;;;;;;;;;;30.60;99.90;;;;;;5003442;28;19913;-85
2024/03/19 12:40:36;;;;;;;;;;;30.70;99.90;;;;;;5009565;28;19932;-85
2024/03/19 12:43:03;;;;;;;;;;;30.90;99.90;;;;;;5015678;28;19953;-86
2024/03/19 12:45:28;;;;;;;;;;;31.10;99.90;;;;;;5010671;28;19910;-85
2024/03/19 12:47:54;;;;;;;;;;;31.10;99.90;;;;;;5019992;28;20440;-85
2024/03/19 12:50:19;;;;;;;;;;;30.80;99.90;;;;;;5006416;28;19945;-84
2024/03/19 12:52:45;;;;;;;;;;;30.90;99.90;;;;;;5010652;28;19925;-86
2024/03/19 12:55:12;;;;;;;;;;;30.50;99.90;;;;;;5012070;28;19909;-85
2024/03/19 12:57:41;;;;;;;;;;;30.20;99.90;;;;;;5013934;28;20008;-84
2024/03/19 13:00:17;;;;;;;;;;;30.00;99.90;;;;;;5013568;28;19960;-86
2024/03/19 13:02:45;;;;;;;;;;;29.70;99.90;;;;;;5013891;28;19910;-86
2024/03/19 13:05:12;;;;;;;;;;;29.00;99.90;;;;;;5020216;28;20018;-84
2024/03/19 13:07:37;;;;;;;;;;;27.90;99.90;;;;;;5010115;28;19909;-85
2024/03/19 13:10:03;;;;;;;;;;;27.40;99.90;;;;;;5014102;28;19913;-86
2024/03/19 13:12:29;;;;;;;;;;;27.70;99.90;;;;;;5017592;28;19926;-87
2024/03/19 13:14:56;;;;;;;;;;;28.30;99.90;;;;;;5014824;28;19909;-86
2024/03/19 13:17:21;;;;;;;;;;;28.80;99.90;;;;;;5012413;28;19910;-85
2024/03/19 13:19:48;;;;;;;;;;;29.10;99.90;;;;;;5019415;28;19913;-85
2024/03/19 13:22:14;;;;;;;;;;;29.50;99.90;;;;;;5023172;28;19917;-87
2024/03/19 13:24:39;;;;;;;;;;;29.60;99.90;;;;;;5016026;28;19910;-87
2024/03/19 13:27:05;;;;;;;;;;;29.40;99.90;;;;;;5024083;28;19917;-85
2024/03/19 13:29:30;;;;;;;;;;;28.80;99.90;;;;;;5015892;28;19963;-85
2024/03/19 13:31:56;;;;;;;;;;;28.40;99.90;;;;;;5013435;28;20429;-86
2024/03/19 13:34:21;;;;;;;;;;;27.90;99.90;;;;;;5018068;28;19924;-85
2024/03/19 13:36:50;;;;;;;;;;;28.10;99.90;;;;;;5019138;28;19968;-85
2024/03/19 13:39:16;;;;;;;;;;;28.20;99.90;;;;;;5017421;28;19968;-85
2024/03/19 13:41:41;;;;;;;;;;;28.10;99.90;;;;;;5018878;28;19917;-85
2024/03/19 13:44:07;;;;;;;;;;;28.00;99.90;;;;;;5018961;28;20386;-86
2024/03/19 13:46:32;;;;;;;;;;;27.30;99.90;;;;;;5017022;28;19914;-84
2024/03/19 13:48:58;;;;;;;;;;;26.90;99.90;;;;;;5013117;28;19914;-85
2024/03/19 13:51:24;;;;;;;;;;;27.10;99.90;;;;;;5022514;28;19913;-86
2024/03/19 13:53:49;;;;;;;;;;;27.60;99.90;;;;;;5017058;28;19917;-88
2024/03/19 13:56:16;;;;;;;;;;;27.60;99.90;;;;;;5019250;28;19909;-85
2024/03/19 13:58:42;;;;;;;;;;;27.20;99.90;;;;;;5027245;28;20437;-86
2024/03/19 14:01:07;;;;;;;;;;;26.60;99.90;;;;;;5018433;28;19944;-86
2024/03/19 14:03:33;;;;;;;;;;;26.30;99.90;;;;;;5019159;28;19999;-84
2024/03/19 14:05:58;;;;;;;;;;;26.20;99.90;;;;;;5019001;28;19917;-85
2024/03/19 14:08:24;;;;;;;;;;;25.90;99.90;;;;;;5014363;28;20323;-86
2024/03/19 14:10:50;;;;;;;;;;;25.60;99.90;;;;;;5017846;28;19937;-84
2024/03/19 14:13:16;;;;;;;;;;;25.40;99.90;;;;;;5015821;28;19924;-86
2024/03/19 14:15:43;;;;;;;;;;;25.40;99.90;;;;;;5012988;28;19913;-84
2024/03/19 14:18:09;;;;;;;;;;;25.40;99.90;;;;;;5018001;28;19974;-83